sensor_id;sensor_type;location;lat;lon;timestamp;P1;durP1;ratioP1;P2;durP2;ratioP2
51382;SDS011;37475;43.358;1.248;2023-06-14T00:01:57;4.22;;;2.60;;
51382;SDS011;37475;43.358;1.248;2023-06-14T00:04:23;6.20;;;2.63;;
51382;SDS011;37475;43.358;1.248;2023-06-14T00:06:50;5.63;;;2.97;;
51382;SDS011;37475;43.358;1.248;2023-06-14T00:09:16;8.05;;;2.90;;
51382;SDS011;37475;43.358;1.248;2023-06-14T00:11:44;5.55;;;2.72;;
51382;SDS011;37475;43.358;1.248;2023-06-14T00:14:10;6.85;;;3.10;;
51382;SDS011;37475;43.358;1.248;2023-06-14T00:16:36;5.32;;;3.00;;
51382;SDS011;37475;43.358;1.248;2023-06-14T00:19:03;5.38;;;3.20;;
51382;SDS011;37475;43.358;1.248;2023-06-14T00:21:32;5.40;;;3.17;;
51382;SDS011;37475;43.358;1.248;2023-06-14T00:23:58;6.43;;;3.20;;
51382;SDS011;37475;43.358;1.248;2023-06-14T00:26:24;4.97;;;3.40;;
51382;SDS011;37475;43.358;1.248;2023-06-14T00:28:51;6.70;;;3.70;;
51382;SDS011;37475;43.358;1.248;2023-06-14T00:31:17;6.32;;;4.18;;
51382;SDS011;37475;43.358;1.248;2023-06-14T00:33:43;6.50;;;3.72;;
51382;SDS011;37475;43.358;1.248;2023-06-14T00:36:10;7.63;;;4.22;;
51382;SDS011;37475;43.358;1.248;2023-06-14T00:38:35;7.07;;;4.30;;
51382;SDS011;37475;43.358;1.248;2023-06-14T00:41:01;8.90;;;4.35;;
51382;SDS011;37475;43.358;1.248;2023-06-14T00:43:27;6.78;;;3.97;;
51382;SDS011;37475;43.358;1.248;2023-06-14T00:45:53;9.52;;;4.57;;
51382;SDS011;37475;43.358;1.248;2023-06-14T00:48:19;7.28;;;4.20;;
51382;SDS011;37475;43.358;1.248;2023-06-14T00:50:45;7.90;;;4.63;;
51382;SDS011;37475;43.358;1.248;2023-06-14T00:53:13;8.55;;;4.70;;
51382;SDS011;37475;43.358;1.248;2023-06-14T00:55:42;8.27;;;5.03;;
51382;SDS011;37475;43.358;1.248;2023-06-14T00:58:08;11.80;;;5.05;;
51382;SDS011;37475;43.358;1.248;2023-06-14T01:00:36;8.00;;;5.22;;
51382;SDS011;37475;43.358;1.248;2023-06-14T01:03:01;10.18;;;5.28;;
51382;SDS011;37475;43.358;1.248;2023-06-14T01:05:28;9.13;;;5.30;;
51382;SDS011;37475;43.358;1.248;2023-06-14T01:10:56;7.85;;;4.97;;
51382;SDS011;37475;43.358;1.248;2023-06-14T01:13:40;10.23;;;5.30;;
51382;SDS011;37475;43.358;1.248;2023-06-14T01:16:10;8.98;;;5.55;;
51382;SDS011;37475;43.358;1.248;2023-06-14T01:18:37;7.93;;;5.88;;
51382;SDS011;37475;43.358;1.248;2023-06-14T01:21:03;9.23;;;5.97;;
51382;SDS011;37475;43.358;1.248;2023-06-14T01:23:33;11.30;;;5.95;;
51382;SDS011;37475;43.358;1.248;2023-06-14T01:25:59;10.43;;;5.85;;
51382;SDS011;37475;43.358;1.248;2023-06-14T01:28:28;8.80;;;5.63;;
51382;SDS011;37475;43.358;1.248;2023-06-14T01:30:59;11.25;;;6.95;;
51382;SDS011;37475;43.358;1.248;2023-06-14T01:33:31;10.75;;;6.65;;
51382;SDS011;37475;43.358;1.248;2023-06-14T01:35:58;15.20;;;6.70;;
51382;SDS011;37475;43.358;1.248;2023-06-14T01:38:25;8.27;;;5.65;;
51382;SDS011;37475;43.358;1.248;2023-06-14T01:40:52;9.38;;;6.72;;
51382;SDS011;37475;43.358;1.248;2023-06-14T01:43:21;11.93;;;7.03;;
51382;SDS011;37475;43.358;1.248;2023-06-14T01:45:48;9.52;;;5.82;;
51382;SDS011;37475;43.358;1.248;2023-06-14T01:48:15;11.70;;;7.50;;
51382;SDS011;37475;43.358;1.248;2023-06-14T01:50:42;14.15;;;7.50;;
51382;SDS011;37475;43.358;1.248;2023-06-14T01:53:08;11.52;;;7.13;;
51382;SDS011;37475;43.358;1.248;2023-06-14T01:55:35;13.60;;;8.07;;
51382;SDS011;37475;43.358;1.248;2023-06-14T01:58:02;15.82;;;8.15;;
51382;SDS011;37475;43.358;1.248;2023-06-14T02:00:29;14.35;;;7.80;;
51382;SDS011;37475;43.358;1.248;2023-06-14T02:02:55;12.82;;;8.30;;
51382;SDS011;37475;43.358;1.248;2023-06-14T02:05:22;10.88;;;8.02;;
51382;SDS011;37475;43.358;1.248;2023-06-14T02:07:48;14.18;;;8.15;;
51382;SDS011;37475;43.358;1.248;2023-06-14T02:10:15;13.48;;;8.05;;
51382;SDS011;37475;43.358;1.248;2023-06-14T02:12:42;12.23;;;8.02;;
51382;SDS011;37475;43.358;1.248;2023-06-14T02:15:08;12.10;;;7.30;;
51382;SDS011;37475;43.358;1.248;2023-06-14T02:17:41;12.07;;;8.00;;
51382;SDS011;37475;43.358;1.248;2023-06-14T02:20:08;13.65;;;7.55;;
51382;SDS011;37475;43.358;1.248;2023-06-14T02:22:34;10.10;;;6.78;;
51382;SDS011;37475;43.358;1.248;2023-06-14T02:25:00;12.13;;;7.43;;
51382;SDS011;37475;43.358;1.248;2023-06-14T02:27:26;10.23;;;7.47;;
51382;SDS011;37475;43.358;1.248;2023-06-14T02:29:52;12.32;;;7.97;;
51382;SDS011;37475;43.358;1.248;2023-06-14T02:32:18;15.60;;;8.40;;
51382;SDS011;37475;43.358;1.248;2023-06-14T02:34:43;15.02;;;8.80;;
51382;SDS011;37475;43.358;1.248;2023-06-14T02:37:09;15.95;;;8.45;;
51382;SDS011;37475;43.358;1.248;2023-06-14T02:39:36;15.48;;;8.90;;
51382;SDS011;37475;43.358;1.248;2023-06-14T02:42:02;14.05;;;8.63;;
51382;SDS011;37475;43.358;1.248;2023-06-14T02:44:27;12.65;;;8.82;;
51382;SDS011;37475;43.358;1.248;2023-06-14T02:46:54;15.15;;;9.50;;
51382;SDS011;37475;43.358;1.248;2023-06-14T02:49:21;15.32;;;9.55;;
51382;SDS011;37475;43.358;1.248;2023-06-14T02:51:47;13.73;;;9.05;;
51382;SDS011;37475;43.358;1.248;2023-06-14T02:54:13;15.50;;;9.52;;
51382;SDS011;37475;43.358;1.248;2023-06-14T02:56:39;14.93;;;9.80;;
51382;SDS011;37475;43.358;1.248;2023-06-14T02:59:05;15.15;;;9.70;;
51382;SDS011;37475;43.358;1.248;2023-06-14T03:01:32;16.98;;;10.25;;
51382;SDS011;37475;43.358;1.248;2023-06-14T03:04:06;15.18;;;9.65;;
51382;SDS011;37475;43.358;1.248;2023-06-14T03:06:32;21.58;;;10.77;;
51382;SDS011;37475;43.358;1.248;2023-06-14T03:08:59;16.20;;;10.13;;
51382;SDS011;37475;43.358;1.248;2023-06-14T03:11:29;17.55;;;10.00;;
51382;SDS011;37475;43.358;1.248;2023-06-14T03:13:56;13.50;;;9.75;;
51382;SDS011;37475;43.358;1.248;2023-06-14T03:16:22;16.92;;;10.45;;
51382;SDS011;37475;43.358;1.248;2023-06-14T03:18:49;18.90;;;10.82;;
51382;SDS011;37475;43.358;1.248;2023-06-14T03:21:16;18.52;;;10.45;;
51382;SDS011;37475;43.358;1.248;2023-06-14T03:23:46;18.33;;;10.68;;
51382;SDS011;37475;43.358;1.248;2023-06-14T03:26:13;19.80;;;11.40;;
51382;SDS011;37475;43.358;1.248;2023-06-14T03:28:42;16.73;;;10.30;;
51382;SDS011;37475;43.358;1.248;2023-06-14T03:31:10;16.27;;;10.68;;
51382;SDS011;37475;43.358;1.248;2023-06-14T03:33:37;15.82;;;11.18;;
51382;SDS011;37475;43.358;1.248;2023-06-14T03:36:04;17.30;;;10.32;;
51382;SDS011;37475;43.358;1.248;2023-06-14T03:38:30;17.10;;;10.80;;
51382;SDS011;37475;43.358;1.248;2023-06-14T03:40:56;15.50;;;11.30;;
51382;SDS011;37475;43.358;1.248;2023-06-14T03:43:22;16.80;;;10.57;;
51382;SDS011;37475;43.358;1.248;2023-06-14T03:45:47;17.33;;;10.68;;
51382;SDS011;37475;43.358;1.248;2023-06-14T03:48:13;14.38;;;9.07;;
51382;SDS011;37475;43.358;1.248;2023-06-14T03:50:39;15.32;;;9.32;;
51382;SDS011;37475;43.358;1.248;2023-06-14T03:53:07;15.13;;;10.20;;
51382;SDS011;37475;43.358;1.248;2023-06-14T03:55:34;18.55;;;10.27;;
51382;SDS011;37475;43.358;1.248;2023-06-14T03:58:00;20.10;;;10.43;;
51382;SDS011;37475;43.358;1.248;2023-06-14T04:00:26;15.77;;;10.45;;
51382;SDS011;37475;43.358;1.248;2023-06-14T04:02:52;16.38;;;9.88;;
51382;SDS011;37475;43.358;1.248;2023-06-14T04:05:18;17.50;;;9.95;;
51382;SDS011;37475;43.358;1.248;2023-06-14T04:07:45;12.48;;;9.50;;
51382;SDS011;37475;43.358;1.248;2023-06-14T04:10:13;13.50;;;9.32;;
51382;SDS011;37475;43.358;1.248;2023-06-14T04:12:41;13.65;;;8.75;;
51382;SDS011;37475;43.358;1.248;2023-06-14T04:15:07;15.25;;;9.65;;
51382;SDS011;37475;43.358;1.248;2023-06-14T04:17:34;13.95;;;9.45;;
51382;SDS011;37475;43.358;1.248;2023-06-14T04:20:02;17.13;;;9.40;;
51382;SDS011;37475;43.358;1.248;2023-06-14T04:22:30;13.65;;;9.30;;
51382;SDS011;37475;43.358;1.248;2023-06-14T04:24:56;14.68;;;9.75;;
51382;SDS011;37475;43.358;1.248;2023-06-14T04:27:23;16.40;;;9.93;;
51382;SDS011;37475;43.358;1.248;2023-06-14T04:29:54;17.10;;;10.45;;
51382;SDS011;37475;43.358;1.248;2023-06-14T04:32:24;15.77;;;9.95;;
51382;SDS011;37475;43.358;1.248;2023-06-14T04:34:57;16.20;;;10.13;;
51382;SDS011;37475;43.358;1.248;2023-06-14T04:37:24;13.48;;;9.65;;
51382;SDS011;37475;43.358;1.248;2023-06-14T04:39:53;15.05;;;10.07;;
51382;SDS011;37475;43.358;1.248;2023-06-14T04:42:21;18.52;;;10.20;;
51382;SDS011;37475;43.358;1.248;2023-06-14T04:44:50;15.82;;;9.93;;
51382;SDS011;37475;43.358;1.248;2023-06-14T04:47:19;19.60;;;10.45;;
51382;SDS011;37475;43.358;1.248;2023-06-14T04:49:46;13.55;;;9.45;;
51382;SDS011;37475;43.358;1.248;2023-06-14T04:52:12;13.60;;;8.73;;
51382;SDS011;37475;43.358;1.248;2023-06-14T04:54:39;12.13;;;8.65;;
51382;SDS011;37475;43.358;1.248;2023-06-14T04:57:08;11.73;;;8.40;;
51382;SDS011;37475;43.358;1.248;2023-06-14T04:59:38;15.55;;;9.00;;
51382;SDS011;37475;43.358;1.248;2023-06-14T05:02:05;15.68;;;8.77;;
51382;SDS011;37475;43.358;1.248;2023-06-14T05:04:32;11.93;;;9.05;;
51382;SDS011;37475;43.358;1.248;2023-06-14T05:06:57;13.90;;;7.50;;
51382;SDS011;37475;43.358;1.248;2023-06-14T05:09:23;15.60;;;9.73;;
51382;SDS011;37475;43.358;1.248;2023-06-14T05:11:49;12.65;;;7.00;;
51382;SDS011;37475;43.358;1.248;2023-06-14T05:14:15;12.80;;;8.80;;
51382;SDS011;37475;43.358;1.248;2023-06-14T05:16:42;16.35;;;8.27;;
51382;SDS011;37475;43.358;1.248;2023-06-14T05:19:09;18.63;;;8.48;;
51382;SDS011;37475;43.358;1.248;2023-06-14T05:21:35;17.65;;;9.43;;
51382;SDS011;37475;43.358;1.248;2023-06-14T05:24:02;13.48;;;9.88;;
51382;SDS011;37475;43.358;1.248;2023-06-14T05:26:28;14.07;;;9.63;;
51382;SDS011;37475;43.358;1.248;2023-06-14T05:28:55;16.27;;;10.10;;
51382;SDS011;37475;43.358;1.248;2023-06-14T05:31:24;14.93;;;10.55;;
51382;SDS011;37475;43.358;1.248;2023-06-14T05:33:50;17.83;;;9.25;;
51382;SDS011;37475;43.358;1.248;2023-06-14T05:36:17;14.57;;;9.88;;
51382;SDS011;37475;43.358;1.248;2023-06-14T05:38:43;13.73;;;9.52;;
51382;SDS011;37475;43.358;1.248;2023-06-14T05:41:10;18.60;;;9.57;;
51382;SDS011;37475;43.358;1.248;2023-06-14T05:43:36;17.30;;;8.32;;
51382;SDS011;37475;43.358;1.248;2023-06-14T05:46:02;14.95;;;9.70;;
51382;SDS011;37475;43.358;1.248;2023-06-14T05:48:28;14.18;;;8.98;;
51382;SDS011;37475;43.358;1.248;2023-06-14T05:50:55;17.48;;;10.00;;
51382;SDS011;37475;43.358;1.248;2023-06-14T05:53:21;16.13;;;9.68;;
51382;SDS011;37475;43.358;1.248;2023-06-14T05:55:47;18.10;;;10.57;;
51382;SDS011;37475;43.358;1.248;2023-06-14T05:58:15;17.70;;;11.30;;
51382;SDS011;37475;43.358;1.248;2023-06-14T06:00:41;17.40;;;9.85;;
51382;SDS011;37475;43.358;1.248;2023-06-14T06:03:07;14.98;;;10.00;;
51382;SDS011;37475;43.358;1.248;2023-06-14T06:05:36;12.65;;;8.02;;
51382;SDS011;37475;43.358;1.248;2023-06-14T06:08:02;14.30;;;10.18;;
51382;SDS011;37475;43.358;1.248;2023-06-14T06:10:27;17.45;;;11.27;;
51382;SDS011;37475;43.358;1.248;2023-06-14T06:12:53;16.35;;;10.75;;
51382;SDS011;37475;43.358;1.248;2023-06-14T06:15:19;18.85;;;10.73;;
51382;SDS011;37475;43.358;1.248;2023-06-14T06:17:45;21.13;;;12.07;;
51382;SDS011;37475;43.358;1.248;2023-06-14T06:20:11;17.27;;;11.25;;
51382;SDS011;37475;43.358;1.248;2023-06-14T06:22:37;17.25;;;11.52;;
51382;SDS011;37475;43.358;1.248;2023-06-14T06:25:04;18.23;;;10.63;;
51382;SDS011;37475;43.358;1.248;2023-06-14T06:27:31;20.27;;;11.07;;
51382;SDS011;37475;43.358;1.248;2023-06-14T06:29:57;15.43;;;9.00;;
51382;SDS011;37475;43.358;1.248;2023-06-14T06:32:23;17.20;;;10.50;;
51382;SDS011;37475;43.358;1.248;2023-06-14T06:34:49;17.63;;;10.27;;
51382;SDS011;37475;43.358;1.248;2023-06-14T06:37:15;17.27;;;11.32;;
51382;SDS011;37475;43.358;1.248;2023-06-14T06:39:41;19.85;;;11.38;;
51382;SDS011;37475;43.358;1.248;2023-06-14T06:42:07;20.27;;;10.63;;
51382;SDS011;37475;43.358;1.248;2023-06-14T06:44:33;17.48;;;10.95;;
51382;SDS011;37475;43.358;1.248;2023-06-14T06:46:58;20.10;;;10.23;;
51382;SDS011;37475;43.358;1.248;2023-06-14T06:49:24;16.73;;;10.27;;
51382;SDS011;37475;43.358;1.248;2023-06-14T06:52:01;19.42;;;12.07;;
51382;SDS011;37475;43.358;1.248;2023-06-14T06:54:32;17.80;;;9.90;;
51382;SDS011;37475;43.358;1.248;2023-06-14T06:56:59;16.52;;;10.48;;
51382;SDS011;37475;43.358;1.248;2023-06-14T06:59:26;17.33;;;10.88;;
51382;SDS011;37475;43.358;1.248;2023-06-14T07:01:52;18.23;;;11.13;;
51382;SDS011;37475;43.358;1.248;2023-06-14T07:04:18;14.68;;;9.23;;
51382;SDS011;37475;43.358;1.248;2023-06-14T07:06:44;16.95;;;10.05;;
51382;SDS011;37475;43.358;1.248;2023-06-14T07:09:11;13.20;;;8.82;;
51382;SDS011;37475;43.358;1.248;2023-06-14T07:11:39;17.55;;;10.10;;
51382;SDS011;37475;43.358;1.248;2023-06-14T07:14:05;17.98;;;8.60;;
51382;SDS011;37475;43.358;1.248;2023-06-14T07:16:31;15.93;;;8.70;;
51382;SDS011;37475;43.358;1.248;2023-06-14T07:18:58;17.15;;;10.70;;
51382;SDS011;37475;43.358;1.248;2023-06-14T07:21:23;19.40;;;9.88;;
51382;SDS011;37475;43.358;1.248;2023-06-14T07:23:52;17.40;;;10.02;;
51382;SDS011;37475;43.358;1.248;2023-06-14T07:26:19;19.23;;;10.45;;
51382;SDS011;37475;43.358;1.248;2023-06-14T07:28:46;16.05;;;9.45;;
51382;SDS011;37475;43.358;1.248;2023-06-14T07:31:13;20.35;;;9.63;;
51382;SDS011;37475;43.358;1.248;2023-06-14T07:33:44;17.98;;;10.35;;
51382;SDS011;37475;43.358;1.248;2023-06-14T07:36:10;15.57;;;9.30;;
51382;SDS011;37475;43.358;1.248;2023-06-14T07:38:36;14.20;;;9.93;;
51382;SDS011;37475;43.358;1.248;2023-06-14T07:41:02;20.95;;;9.57;;
51382;SDS011;37475;43.358;1.248;2023-06-14T07:43:28;17.90;;;8.75;;
51382;SDS011;37475;43.358;1.248;2023-06-14T07:45:54;22.05;;;9.68;;
51382;SDS011;37475;43.358;1.248;2023-06-14T07:48:21;15.85;;;8.98;;
51382;SDS011;37475;43.358;1.248;2023-06-14T07:50:47;16.70;;;8.85;;
51382;SDS011;37475;43.358;1.248;2023-06-14T07:53:13;14.15;;;8.85;;
51382;SDS011;37475;43.358;1.248;2023-06-14T07:55:39;12.43;;;7.75;;
51382;SDS011;37475;43.358;1.248;2023-06-14T07:58:07;12.43;;;8.50;;
51382;SDS011;37475;43.358;1.248;2023-06-14T08:00:33;14.15;;;8.48;;
51382;SDS011;37475;43.358;1.248;2023-06-14T08:02:59;11.95;;;7.43;;
51382;SDS011;37475;43.358;1.248;2023-06-14T08:05:25;13.70;;;7.78;;
51382;SDS011;37475;43.358;1.248;2023-06-14T08:07:52;15.63;;;8.40;;
51382;SDS011;37475;43.358;1.248;2023-06-14T08:10:18;14.85;;;7.38;;
51382;SDS011;37475;43.358;1.248;2023-06-14T08:12:44;11.90;;;7.07;;
51382;SDS011;37475;43.358;1.248;2023-06-14T08:15:10;13.77;;;7.75;;
51382;SDS011;37475;43.358;1.248;2023-06-14T08:17:36;14.55;;;8.02;;
51382;SDS011;37475;43.358;1.248;2023-06-14T08:20:03;14.55;;;8.18;;
51382;SDS011;37475;43.358;1.248;2023-06-14T08:22:30;12.68;;;7.35;;
51382;SDS011;37475;43.358;1.248;2023-06-14T08:24:59;13.20;;;8.05;;
51382;SDS011;37475;43.358;1.248;2023-06-14T08:27:26;13.80;;;8.05;;
51382;SDS011;37475;43.358;1.248;2023-06-14T08:29:52;15.82;;;8.32;;
51382;SDS011;37475;43.358;1.248;2023-06-14T08:32:18;15.10;;;8.63;;
51382;SDS011;37475;43.358;1.248;2023-06-14T08:34:44;14.32;;;8.38;;
51382;SDS011;37475;43.358;1.248;2023-06-14T08:37:10;12.98;;;7.97;;
51382;SDS011;37475;43.358;1.248;2023-06-14T08:39:36;14.38;;;8.23;;
51382;SDS011;37475;43.358;1.248;2023-06-14T08:42:03;12.75;;;7.13;;
51382;SDS011;37475;43.358;1.248;2023-06-14T08:44:31;16.58;;;8.95;;
51382;SDS011;37475;43.358;1.248;2023-06-14T08:46:59;16.52;;;8.90;;
51382;SDS011;37475;43.358;1.248;2023-06-14T08:49:26;16.83;;;8.70;;
51382;SDS011;37475;43.358;1.248;2023-06-14T08:51:54;16.48;;;8.85;;
51382;SDS011;37475;43.358;1.248;2023-06-14T08:54:25;16.20;;;9.38;;
51382;SDS011;37475;43.358;1.248;2023-06-14T08:57:02;17.08;;;9.77;;
51382;SDS011;37475;43.358;1.248;2023-06-14T08:59:32;14.48;;;9.38;;
51382;SDS011;37475;43.358;1.248;2023-06-14T09:02:04;16.33;;;8.77;;
51382;SDS011;37475;43.358;1.248;2023-06-14T09:04:31;18.65;;;10.55;;
51382;SDS011;37475;43.358;1.248;2023-06-14T09:06:58;17.77;;;9.35;;
51382;SDS011;37475;43.358;1.248;2023-06-14T09:09:25;18.05;;;10.05;;
51382;SDS011;37475;43.358;1.248;2023-06-14T09:11:52;17.42;;;9.50;;
51382;SDS011;37475;43.358;1.248;2023-06-14T09:14:18;17.58;;;9.20;;
51382;SDS011;37475;43.358;1.248;2023-06-14T09:16:45;13.85;;;9.43;;
51382;SDS011;37475;43.358;1.248;2023-06-14T09:19:24;18.30;;;8.82;;
51382;SDS011;37475;43.358;1.248;2023-06-14T09:21:50;19.27;;;9.52;;
51382;SDS011;37475;43.358;1.248;2023-06-14T09:24:17;16.15;;;9.55;;
51382;SDS011;37475;43.358;1.248;2023-06-14T09:26:47;16.05;;;9.68;;
51382;SDS011;37475;43.358;1.248;2023-06-14T09:29:16;18.08;;;9.88;;
51382;SDS011;37475;43.358;1.248;2023-06-14T09:31:43;18.52;;;9.50;;
51382;SDS011;37475;43.358;1.248;2023-06-14T09:34:12;16.05;;;8.98;;
51382;SDS011;37475;43.358;1.248;2023-06-14T09:36:39;17.70;;;9.23;;
51382;SDS011;37475;43.358;1.248;2023-06-14T09:39:08;17.40;;;8.63;;
51382;SDS011;37475;43.358;1.248;2023-06-14T09:41:40;14.07;;;9.38;;
51382;SDS011;37475;43.358;1.248;2023-06-14T09:44:08;17.67;;;9.68;;
51382;SDS011;37475;43.358;1.248;2023-06-14T09:46:35;14.32;;;9.15;;
51382;SDS011;37475;43.358;1.248;2023-06-14T09:49:03;16.15;;;9.98;;
51382;SDS011;37475;43.358;1.248;2023-06-14T09:51:30;16.75;;;9.40;;
51382;SDS011;37475;43.358;1.248;2023-06-14T09:53:59;18.55;;;8.77;;
51382;SDS011;37475;43.358;1.248;2023-06-14T09:56:32;13.27;;;7.97;;
51382;SDS011;37475;43.358;1.248;2023-06-14T09:59:04;14.32;;;9.80;;
51382;SDS011;37475;43.358;1.248;2023-06-14T10:01:34;18.33;;;8.20;;
51382;SDS011;37475;43.358;1.248;2023-06-14T10:04:07;14.82;;;9.32;;
51382;SDS011;37475;43.358;1.248;2023-06-14T10:06:45;16.65;;;9.13;;
51382;SDS011;37475;43.358;1.248;2023-06-14T10:09:11;18.98;;;9.77;;
51382;SDS011;37475;43.358;1.248;2023-06-14T10:11:38;17.40;;;9.18;;
51382;SDS011;37475;43.358;1.248;2023-06-14T10:14:08;17.50;;;9.45;;
51382;SDS011;37475;43.358;1.248;2023-06-14T10:16:41;13.60;;;8.02;;
51382;SDS011;37475;43.358;1.248;2023-06-14T10:19:31;14.07;;;8.27;;
51382;SDS011;37475;43.358;1.248;2023-06-14T10:25:12;16.27;;;9.45;;
51382;SDS011;37475;43.358;1.248;2023-06-14T10:27:38;17.75;;;9.13;;
51382;SDS011;37475;43.358;1.248;2023-06-14T10:30:10;17.20;;;8.30;;
51382;SDS011;37475;43.358;1.248;2023-06-14T10:33:02;15.70;;;8.77;;
51382;SDS011;37475;43.358;1.248;2023-06-14T10:35:32;14.53;;;9.43;;
51382;SDS011;37475;43.358;1.248;2023-06-14T10:38:09;15.93;;;9.43;;
51382;SDS011;37475;43.358;1.248;2023-06-14T10:40:36;16.98;;;9.35;;
51382;SDS011;37475;43.358;1.248;2023-06-14T10:43:21;16.52;;;8.90;;
51382;SDS011;37475;43.358;1.248;2023-06-14T10:48:42;15.73;;;8.25;;
51382;SDS011;37475;43.358;1.248;2023-06-14T10:51:17;16.85;;;9.40;;
51382;SDS011;37475;43.358;1.248;2023-06-14T10:53:50;19.13;;;9.15;;
51382;SDS011;37475;43.358;1.248;2023-06-14T10:56:29;13.65;;;8.63;;
51382;SDS011;37475;43.358;1.248;2023-06-14T10:58:59;14.25;;;8.95;;
51382;SDS011;37475;43.358;1.248;2023-06-14T11:01:35;13.73;;;8.70;;
51382;SDS011;37475;43.358;1.248;2023-06-14T11:04:11;14.98;;;7.55;;
51382;SDS011;37475;43.358;1.248;2023-06-14T11:06:50;16.92;;;7.50;;
51382;SDS011;37475;43.358;1.248;2023-06-14T11:12:20;12.80;;;7.20;;
51382;SDS011;37475;43.358;1.248;2023-06-14T11:14:48;9.57;;;6.93;;
51382;SDS011;37475;43.358;1.248;2023-06-14T11:17:13;13.88;;;6.90;;
51382;SDS011;37475;43.358;1.248;2023-06-14T11:19:39;11.82;;;6.28;;
51382;SDS011;37475;43.358;1.248;2023-06-14T11:22:05;11.60;;;7.30;;
51382;SDS011;37475;43.358;1.248;2023-06-14T11:24:32;12.13;;;6.65;;
51382;SDS011;37475;43.358;1.248;2023-06-14T11:26:58;15.95;;;6.32;;
51382;SDS011;37475;43.358;1.248;2023-06-14T11:29:24;12.32;;;6.47;;
51382;SDS011;37475;43.358;1.248;2023-06-14T11:31:51;9.32;;;6.63;;
51382;SDS011;37475;43.358;1.248;2023-06-14T11:34:17;12.95;;;6.70;;
51382;SDS011;37475;43.358;1.248;2023-06-14T11:36:43;14.35;;;6.75;;
51382;SDS011;37475;43.358;1.248;2023-06-14T11:39:09;11.18;;;5.78;;
51382;SDS011;37475;43.358;1.248;2023-06-14T11:41:42;9.75;;;5.45;;
51382;SDS011;37475;43.358;1.248;2023-06-14T11:44:09;12.30;;;6.38;;
51382;SDS011;37475;43.358;1.248;2023-06-14T11:46:36;10.88;;;6.30;;
51382;SDS011;37475;43.358;1.248;2023-06-14T11:49:03;11.55;;;5.55;;
51382;SDS011;37475;43.358;1.248;2023-06-14T11:51:32;8.90;;;5.72;;
51382;SDS011;37475;43.358;1.248;2023-06-14T11:53:59;11.05;;;5.82;;
51382;SDS011;37475;43.358;1.248;2023-06-14T11:56:27;9.35;;;4.70;;
51382;SDS011;37475;43.358;1.248;2023-06-14T11:58:54;11.18;;;5.38;;
51382;SDS011;37475;43.358;1.248;2023-06-14T12:01:22;16.67;;;6.22;;
51382;SDS011;37475;43.358;1.248;2023-06-14T12:03:49;9.50;;;5.45;;
51382;SDS011;37475;43.358;1.248;2023-06-14T12:06:15;9.20;;;5.68;;
51382;SDS011;37475;43.358;1.248;2023-06-14T12:08:43;12.18;;;5.38;;
51382;SDS011;37475;43.358;1.248;2023-06-14T12:11:13;12.55;;;6.50;;
51382;SDS011;37475;43.358;1.248;2023-06-14T12:13:40;16.58;;;6.80;;
51382;SDS011;37475;43.358;1.248;2023-06-14T12:16:10;11.70;;;5.97;;
51382;SDS011;37475;43.358;1.248;2023-06-14T12:18:38;11.43;;;6.63;;
51382;SDS011;37475;43.358;1.248;2023-06-14T12:21:06;9.25;;;5.00;;
51382;SDS011;37475;43.358;1.248;2023-06-14T12:23:40;9.98;;;6.28;;
51382;SDS011;37475;43.358;1.248;2023-06-14T12:26:14;12.32;;;6.47;;
51382;SDS011;37475;43.358;1.248;2023-06-14T12:28:42;9.05;;;5.28;;
51382;SDS011;37475;43.358;1.248;2023-06-14T12:31:11;8.93;;;5.38;;
51382;SDS011;37475;43.358;1.248;2023-06-14T12:33:39;9.45;;;5.25;;
51382;SDS011;37475;43.358;1.248;2023-06-14T12:36:06;11.13;;;4.63;;
51382;SDS011;37475;43.358;1.248;2023-06-14T12:38:34;8.27;;;4.35;;
51382;SDS011;37475;43.358;1.248;2023-06-14T12:41:01;8.55;;;5.80;;
51382;SDS011;37475;43.358;1.248;2023-06-14T12:43:28;9.27;;;5.57;;
51382;SDS011;37475;43.358;1.248;2023-06-14T12:45:53;12.80;;;5.85;;
51382;SDS011;37475;43.358;1.248;2023-06-14T12:48:19;10.18;;;6.03;;
51382;SDS011;37475;43.358;1.248;2023-06-14T12:50:46;9.30;;;5.90;;
51382;SDS011;37475;43.358;1.248;2023-06-14T12:53:13;11.30;;;5.65;;
51382;SDS011;37475;43.358;1.248;2023-06-14T12:55:39;12.73;;;6.40;;
51382;SDS011;37475;43.358;1.248;2023-06-14T12:58:06;7.68;;;5.13;;
51382;SDS011;37475;43.358;1.248;2023-06-14T13:00:32;12.00;;;6.38;;
51382;SDS011;37475;43.358;1.248;2023-06-14T13:02:57;9.05;;;5.28;;
51382;SDS011;37475;43.358;1.248;2023-06-14T13:05:23;8.65;;;5.30;;
51382;SDS011;37475;43.358;1.248;2023-06-14T13:07:50;9.15;;;5.28;;
51382;SDS011;37475;43.358;1.248;2023-06-14T13:10:16;11.95;;;6.93;;
51382;SDS011;37475;43.358;1.248;2023-06-14T13:12:42;10.27;;;5.95;;
51382;SDS011;37475;43.358;1.248;2023-06-14T13:15:08;12.13;;;5.35;;
51382;SDS011;37475;43.358;1.248;2023-06-14T13:17:35;9.77;;;5.70;;
51382;SDS011;37475;43.358;1.248;2023-06-14T13:20:07;14.48;;;6.30;;
51382;SDS011;37475;43.358;1.248;2023-06-14T13:22:33;10.85;;;5.82;;
51382;SDS011;37475;43.358;1.248;2023-06-14T13:25:00;11.30;;;5.63;;
51382;SDS011;37475;43.358;1.248;2023-06-14T13:27:27;12.77;;;5.22;;
51382;SDS011;37475;43.358;1.248;2023-06-14T13:29:53;12.38;;;5.80;;
51382;SDS011;37475;43.358;1.248;2023-06-14T13:32:23;11.68;;;5.55;;
51382;SDS011;37475;43.358;1.248;2023-06-14T13:34:49;9.77;;;5.70;;
51382;SDS011;37475;43.358;1.248;2023-06-14T13:37:15;11.80;;;5.05;;
51382;SDS011;37475;43.358;1.248;2023-06-14T13:39:41;9.43;;;5.85;;
51382;SDS011;37475;43.358;1.248;2023-06-14T13:42:07;9.00;;;4.18;;
51382;SDS011;37475;43.358;1.248;2023-06-14T13:44:33;11.10;;;5.45;;
51382;SDS011;37475;43.358;1.248;2023-06-14T13:46:59;6.68;;;4.82;;
51382;SDS011;37475;43.358;1.248;2023-06-14T13:49:25;20.95;;;5.70;;
51382;SDS011;37475;43.358;1.248;2023-06-14T13:51:51;13.05;;;6.40;;
51382;SDS011;37475;43.358;1.248;2023-06-14T13:54:18;10.50;;;5.68;;
51382;SDS011;37475;43.358;1.248;2023-06-14T13:56:46;11.40;;;5.63;;
51382;SDS011;37475;43.358;1.248;2023-06-14T13:59:12;8.43;;;5.25;;
51382;SDS011;37475;43.358;1.248;2023-06-14T14:01:38;10.93;;;5.25;;
51382;SDS011;37475;43.358;1.248;2023-06-14T14:04:04;12.13;;;5.40;;
51382;SDS011;37475;43.358;1.248;2023-06-14T14:06:30;10.88;;;5.22;;
51382;SDS011;37475;43.358;1.248;2023-06-14T14:08:57;11.00;;;5.40;;
51382;SDS011;37475;43.358;1.248;2023-06-14T14:11:23;9.32;;;4.88;;
51382;SDS011;37475;43.358;1.248;2023-06-14T14:13:49;10.65;;;6.65;;
51382;SDS011;37475;43.358;1.248;2023-06-14T14:16:15;13.23;;;5.90;;
51382;SDS011;37475;43.358;1.248;2023-06-14T14:18:41;14.52;;;5.90;;
51382;SDS011;37475;43.358;1.248;2023-06-14T14:21:06;8.13;;;5.18;;
51382;SDS011;37475;43.358;1.248;2023-06-14T14:23:32;14.07;;;6.32;;
51382;SDS011;37475;43.358;1.248;2023-06-14T14:25:58;10.48;;;6.60;;
51382;SDS011;37475;43.358;1.248;2023-06-14T14:28:28;12.05;;;6.57;;
51382;SDS011;37475;43.358;1.248;2023-06-14T14:30:54;8.30;;;5.63;;
51382;SDS011;37475;43.358;1.248;2023-06-14T14:33:20;9.02;;;5.47;;
51382;SDS011;37475;43.358;1.248;2023-06-14T14:35:45;9.10;;;5.20;;
51382;SDS011;37475;43.358;1.248;2023-06-14T14:38:12;10.02;;;5.70;;
51382;SDS011;37475;43.358;1.248;2023-06-14T14:40:41;8.35;;;4.60;;
51382;SDS011;37475;43.358;1.248;2023-06-14T14:43:08;9.80;;;5.35;;
51382;SDS011;37475;43.358;1.248;2023-06-14T14:45:34;10.00;;;4.78;;
51382;SDS011;37475;43.358;1.248;2023-06-14T14:48:01;7.03;;;4.15;;
51382;SDS011;37475;43.358;1.248;2023-06-14T14:50:28;10.88;;;5.28;;